Time;durP1;ratioP1;P1;durP2;ratioP2;P2;SDS_P1;SDS_P2;PMS_P1;PMS_P2;Temp;Humidity;BMP_temperature;BMP_pressure;BME280_temperature;BME280_humidity;BME280_pressure;Samples;Min_cycle;Max_cycle;Signal;HPM_P1;HPM_P2
2022/03/25 00:00:53;;;;;;;2.60;1.50;;;23.90;29.50;;;;;;5071228;28;20395;-63
2022/03/25 00:03:21;;;;;;;2.30;1.43;;;23.90;29.50;;;;;;5071141;28;20485;-64
2022/03/25 00:05:47;;;;;;;2.63;1.40;;;23.90;29.60;;;;;;5071194;28;20421;-63
2022/03/25 00:08:13;;;;;;;2.10;1.43;;;23.90;29.50;;;;;;5070607;28;20419;-66
2022/03/25 00:10:38;;;;;;;1.90;1.40;;;23.90;29.50;;;;;;5071036;28;20510;-64
2022/03/25 00:13:05;;;;;;;1.90;1.48;;;23.90;29.50;;;;;;5071105;28;20436;-66
2022/03/25 00:15:31;;;;;;;2.37;1.30;;;23.80;29.60;;;;;;5070912;28;20385;-65
2022/03/25 00:17:56;;;;;;;2.17;1.60;;;23.80;29.50;;;;;;5070797;28;20916;-64
2022/03/25 00:20:22;;;;;;;1.87;1.37;;;23.80;29.40;;;;;;5070708;28;21149;-66
2022/03/25 00:22:47;;;;;;;2.75;1.75;;;23.80;29.50;;;;;;5070959;28;20380;-66
2022/03/25 00:25:13;;;;;;;3.23;1.60;;;23.90;29.60;;;;;;5070879;28;20763;-66
2022/03/25 00:27:39;;;;;;;1.80;1.50;;;23.80;29.40;;;;;;5070361;28;20419;-63
2022/03/25 00:30:05;;;;;;;2.40;1.50;;;23.90;29.40;;;;;;5070321;28;20495;-64
2022/03/25 00:32:30;;;;;;;2.08;1.52;;;23.80;29.30;;;;;;5072849;28;20399;-66
2022/03/25 00:34:56;;;;;;;2.13;1.50;;;23.80;29.30;;;;;;5074588;28;20500;-64
2022/03/25 00:37:23;;;;;;;2.10;1.40;;;23.80;29.30;;;;;;5074458;28;20391;-65
2022/03/25 00:39:49;;;;;;;1.80;1.30;;;23.80;29.30;;;;;;5074529;28;20411;-63
2022/03/25 00:42:16;;;;;;;2.20;1.50;;;23.80;29.30;;;;;;5073887;28;20438;-63
2022/03/25 00:44:41;;;;;;;2.00;1.60;;;23.80;29.30;;;;;;5074237;28;20384;-65
2022/03/25 00:47:07;;;;;;;2.10;1.53;;;23.80;29.30;;;;;;5074043;28;20903;-65
2022/03/25 00:49:33;;;;;;;2.45;1.55;;;23.80;29.30;;;;;;5074258;28;20423;-63
2022/03/25 00:51:59;;;;;;;2.13;1.50;;;23.80;29.30;;;;;;5073898;28;20962;-63
2022/03/25 00:54:25;;;;;;;2.08;1.60;;;23.80;29.30;;;;;;5073897;28;20387;-65
2022/03/25 00:56:50;;;;;;;2.00;1.58;;;23.80;29.80;;;;;;5074156;28;20380;-65
2022/03/25 00:59:16;;;;;;;2.17;1.50;;;23.80;29.30;;;;;;5074137;28;20740;-67
2022/03/25 01:01:42;;;;;;;2.57;1.70;;;23.80;29.30;;;;;;5073804;28;20478;-64
2022/03/25 01:04:08;;;;;;;2.03;1.50;;;23.70;29.20;;;;;;5073433;28;20391;-65
2022/03/25 01:06:35;;;;;;;2.47;1.60;;;23.70;29.20;;;;;;5073958;28;20420;-63
2022/03/25 01:09:03;;;;;;;2.38;1.50;;;23.70;29.20;;;;;;5073909;28;20388;-66
2022/03/25 01:11:29;;;;;;;2.38;1.48;;;23.70;29.20;;;;;;5073732;28;20411;-65
2022/03/25 01:13:54;;;;;;;2.40;1.70;;;23.70;29.30;;;;;;5073286;28;20394;-66
2022/03/25 01:16:20;;;;;;;2.20;1.60;;;23.70;29.20;;;;;;5073149;28;20388;-63
2022/03/25 01:18:46;;;;;;;2.35;1.63;;;23.70;29.20;;;;;;5073767;28;20407;-65
2022/03/25 01:21:12;;;;;;;1.80;1.40;;;23.70;29.30;;;;;;5073617;28;20752;-66
2022/03/25 01:23:37;;;;;;;2.27;1.80;;;23.70;29.20;;;;;;5073575;28;20376;-66
2022/03/25 01:26:04;;;;;;;1.90;1.55;;;23.70;29.20;;;;;;5073211;28;20823;-66
2022/03/25 01:28:34;;;;;;;2.50;1.45;;;23.70;29.20;;;;;;5073079;28;20469;-65
2022/03/25 01:31:03;;;;;;;2.05;1.58;;;23.70;29.20;;;;;;5073362;28;20422;-63
2022/03/25 01:33:30;;;;;;;2.45;1.67;;;23.60;29.10;;;;;;5073211;28;20388;-62
2022/03/25 01:35:56;;;;;;;2.38;1.70;;;23.60;29.10;;;;;;5073413;28;20388;-63
2022/03/25 01:38:23;;;;;;;2.17;1.60;;;23.60;29.10;;;;;;5072829;28;20407;-63
2022/03/25 01:40:48;;;;;;;3.05;1.90;;;23.60;29.10;;;;;;5073391;28;20423;-66
2022/03/25 01:43:14;;;;;;;2.97;2.07;;;23.60;29.20;;;;;;5072009;28;20398;-65
2022/03/25 01:45:40;;;;;;;3.08;1.98;;;23.60;29.10;;;;;;5073014;28;20498;-66
2022/03/25 01:48:11;;;;;;;3.07;2.00;;;23.60;29.20;;;;;;5072414;28;21025;-66
2022/03/25 01:50:39;;;;;;;2.70;2.00;;;23.60;29.20;;;;;;5073029;28;20887;-66
2022/03/25 01:53:15;;;;;;;3.38;2.10;;;23.60;29.10;;;;;;5073069;28;20440;-63
2022/03/25 01:55:58;;;;;;;2.50;1.85;;;23.60;29.10;;;;;;5073018;28;20379;-64
2022/03/25 01:58:25;;;;;;;3.45;1.85;;;23.60;29.20;;;;;;5072459;28;20387;-65
2022/03/25 02:00:51;;;;;;;3.10;2.00;;;23.60;29.20;;;;;;5072706;28;20375;-63
2022/03/25 02:03:16;;;;;;;4.45;2.03;;;23.60;29.20;;;;;;5072763;28;20744;-66
2022/03/25 02:05:43;;;;;;;2.90;1.70;;;23.60;29.30;;;;;;5088393;28;20387;-63
2022/03/25 02:08:10;;;;;;;4.00;2.00;;;23.50;29.10;;;;;;5072273;28;20392;-66
2022/03/25 02:10:37;;;;;;;3.60;2.08;;;23.50;29.10;;;;;;5072564;28;20423;-66
2022/03/25 02:13:03;;;;;;;3.17;2.20;;;23.50;29.10;;;;;;5072660;28;20420;-66
2022/03/25 02:15:40;;;;;;;3.80;1.95;;;23.50;29.10;;;;;;5072602;28;20388;-65
2022/03/25 02:18:09;;;;;;;2.70;1.75;;;23.50;29.10;;;;;;5072261;28;20380;-62
2022/03/25 02:20:37;;;;;;;2.45;1.75;;;23.50;29.10;;;;;;5072464;28;20408;-63
2022/03/25 02:23:04;;;;;;;2.00;1.60;;;23.50;29.10;;;;;;5072461;28;20474;-62
2022/03/25 02:25:31;;;;;;;3.33;1.80;;;23.50;29.10;;;;;;5072371;28;20481;-64
2022/03/25 02:28:00;;;;;;;2.83;1.80;;;23.50;29.10;;;;;;5072437;28;20879;-63
2022/03/25 02:30:27;;;;;;;2.63;1.80;;;23.50;29.10;;;;;;5071909;28;20433;-66
2022/03/25 02:32:57;;;;;;;2.72;1.80;;;23.50;29.10;;;;;;5072301;28;20752;-66
2022/03/25 02:35:39;;;;;;;2.13;1.60;;;23.50;29.10;;;;;;5072214;28;20388;-66
2022/03/25 02:38:06;;;;;;;2.60;1.70;;;23.50;29.10;;;;;;5071776;28;20420;-65
2022/03/25 02:40:32;;;;;;;2.58;1.77;;;23.50;29.10;;;;;;5071823;28;20380;-63
2022/03/25 02:42:58;;;;;;;2.40;1.70;;;23.50;29.10;;;;;;5072132;28;20388;-65
2022/03/25 02:45:24;;;;;;;2.38;1.63;;;23.40;29.10;;;;;;5072031;28;20471;-64
2022/03/25 02:47:50;;;;;;;2.60;1.85;;;23.40;29.10;;;;;;5071838;28;20403;-65
2022/03/25 02:50:16;;;;;;;2.50;1.73;;;23.40;29.00;;;;;;5071481;28;20413;-65
2022/03/25 02:52:42;;;;;;;3.50;1.70;;;23.40;29.10;;;;;;5071922;28;20787;-65
2022/03/25 02:55:08;;;;;;;2.47;1.60;;;23.40;29.10;;;;;;5071771;28;20478;-66
2022/03/25 02:57:35;;;;;;;2.40;1.65;;;23.40;29.10;;;;;;5071899;28;20794;-66
2022/03/25 03:00:01;;;;;;;2.25;1.50;;;23.40;29.00;;;;;;5071846;28;20420;-66
2022/03/25 03:02:27;;;;;;;2.30;1.60;;;23.40;29.00;;;;;;5071552;28;20396;-66
2022/03/25 03:04:53;;;;;;;3.38;1.85;;;23.40;29.00;;;;;;5071688;28;20376;-65
2022/03/25 03:07:18;;;;;;;2.47;1.80;;;23.40;29.10;;;;;;5071720;28;20384;-64
2022/03/25 03:09:44;;;;;;;2.37;1.60;;;23.40;29.00;;;;;;5071670;28;20387;-63
2022/03/25 03:12:10;;;;;;;3.10;1.63;;;23.40;29.00;;;;;;5071121;28;20388;-63
2022/03/25 03:14:36;;;;;;;2.80;1.60;;;23.40;29.00;;;;;;5071371;28;20384;-65
2022/03/25 03:17:04;;;;;;;2.30;1.40;;;23.40;29.00;;;;;;5071690;28;20529;-62
2022/03/25 03:19:31;;;;;;;2.40;1.40;;;23.30;29.00;;;;;;5071557;28;20383;-66
2022/03/25 03:21:58;;;;;;;2.70;1.80;;;23.30;29.00;;;;;;5071702;28;20387;-66
2022/03/25 03:24:23;;;;;;;2.50;1.65;;;23.30;29.00;;;;;;5071105;28;20477;-67
2022/03/25 03:26:49;;;;;;;2.70;1.50;;;23.30;29.00;;;;;;5071573;28;20911;-65
2022/03/25 03:29:15;;;;;;;2.47;1.57;;;23.30;29.00;;;;;;5071579;28;20388;-64
2022/03/25 03:31:41;;;;;;;2.70;1.85;;;23.30;29.00;;;;;;5071384;28;20422;-63
2022/03/25 03:34:06;;;;;;;2.43;1.70;;;23.30;29.00;;;;;;5071190;28;20859;-64
2022/03/25 03:36:32;;;;;;;2.83;1.80;;;23.30;29.00;;;;;;5071189;28;20667;-65
2022/03/25 03:38:57;;;;;;;2.53;1.43;;;23.30;29.00;;;;;;5071426;28;20386;-66
2022/03/25 03:41:25;;;;;;;2.33;1.63;;;23.30;29.00;;;;;;5071366;28;20399;-66
2022/03/25 03:43:51;;;;;;;3.13;1.85;;;23.30;29.50;;;;;;5071402;28;20478;-66
2022/03/25 03:46:16;;;;;;;2.60;1.60;;;23.30;29.00;;;;;;5070780;28;20487;-66
2022/03/25 03:48:43;;;;;;;2.75;1.40;;;23.30;29.00;;;;;;5071303;28;20380;-65
2022/03/25 03:51:08;;;;;;;2.35;1.70;;;23.30;29.00;;;;;;5071251;28;20416;-66
2022/03/25 03:53:34;;;;;;;2.85;1.70;;;23.30;29.00;;;;;;5071204;28;20391;-63
2022/03/25 03:56:00;;;;;;;1.90;1.50;;;23.20;28.90;;;;;;5071294;28;20390;-64
2022/03/25 03:58:25;;;;;;;2.22;1.60;;;23.20;28.90;;;;;;5070798;28;20475;-66
2022/03/25 04:00:51;;;;;;;2.40;1.70;;;23.20;29.00;;;;;;5071203;28;20732;-66
2022/03/25 04:03:17;;;;;;;2.47;1.80;;;23.20;29.00;;;;;;5071220;28;20392;-66
2022/03/25 04:05:44;;;;;;;4.38;1.48;;;23.20;29.00;;;;;;5086673;28;20819;-63
2022/03/25 04:08:09;;;;;;;3.00;1.50;;;23.10;29.50;;;;;;5074157;28;20421;-63
2022/03/25 04:10:35;;;;;;;5.40;1.70;;;23.10;29.50;;;;;;5074772;28;20780;-66
2022/03/25 04:13:01;;;;;;;2.20;1.73;;;23.10;30.10;;;;;;5074970;28;20391;-66
2022/03/25 04:15:27;;;;;;;3.17;1.50;;;23.20;29.80;;;;;;5074904;28;20392;-66
2022/03/25 04:17:52;;;;;;;3.35;1.63;;;23.20;30.00;;;;;;5074937;28;20384;-66
2022/03/25 04:20:18;;;;;;;3.20;1.67;;;23.20;30.90;;;;;;5074331;28;20462;-64
2022/03/25 04:22:45;;;;;;;2.65;1.70;;;23.20;30.50;;;;;;5074810;28;20375;-65
2022/03/25 04:25:13;;;;;;;3.10;1.40;;;23.20;30.70;;;;;;5074733;28;20897;-66
2022/03/25 04:27:52;;;;;;;2.75;1.50;;;23.20;30.40;;;;;;5074701;28;20392;-62
2022/03/25 04:30:23;;;;;;;3.97;1.60;;;23.20;31.20;;;;;;5074238;28;20430;-65
2022/03/25 04:32:49;;;;;;;2.67;1.70;;;23.20;30.50;;;;;;5074584;28;20952;-63
2022/03/25 04:35:15;;;;;;;1.80;1.40;;;23.20;30.70;;;;;;5074572;28;20880;-64
2022/03/25 04:37:41;;;;;;;4.90;1.60;;;23.20;30.60;;;;;;5074547;28;20422;-63
2022/03/25 04:40:09;;;;;;;3.50;1.50;;;23.20;30.90;;;;;;5074374;28;20440;-63
2022/03/25 04:42:35;;;;;;;4.13;1.50;;;23.20;31.00;;;;;;5074855;28;20876;-62
2022/03/25 04:45:00;;;;;;;2.85;1.45;;;23.20;31.90;;;;;;5074718;28;20388;-62
2022/03/25 04:47:26;;;;;;;3.80;1.70;;;23.20;32.70;;;;;;5074373;28;20404;-63
2022/03/25 04:49:52;;;;;;;5.18;1.55;;;23.30;32.10;;;;;;5090065;28;20482;-65
2022/03/25 04:52:17;;;;;;;5.77;1.67;;;23.30;32.20;;;;;;5073974;28;20403;-62
2022/03/25 04:54:43;;;;;;;3.28;1.33;;;23.30;32.50;;;;;;5073997;28;20426;-63
2022/03/25 04:57:09;;;;;;;4.22;1.40;;;23.30;32.00;;;;;;5073901;28;20388;-64
2022/03/25 04:59:34;;;;;;;1.92;1.33;;;23.30;31.20;;;;;;5074072;28;20384;-66
2022/03/25 05:02:01;;;;;;;3.73;1.63;;;23.20;31.20;;;;;;5074015;28;20426;-63
2022/03/25 05:04:27;;;;;;;4.93;1.33;;;23.30;31.00;;;;;;5073445;28;20396;-64
2022/03/25 05:06:53;;;;;;;3.10;1.47;;;23.20;30.80;;;;;;5073743;28;20380;-63
2022/03/25 05:09:19;;;;;;;3.90;1.35;;;23.20;31.70;;;;;;5073821;28;20474;-62
2022/03/25 05:11:45;;;;;;;3.85;1.38;;;23.20;30.80;;;;;;5073693;28;20412;-62
2022/03/25 05:14:10;;;;;;;4.20;1.42;;;23.20;31.00;;;;;;5073660;28;20731;-65
2022/03/25 05:16:36;;;;;;;3.17;1.30;;;23.20;30.80;;;;;;5073594;28;20396;-63
2022/03/25 05:19:02;;;;;;;3.45;1.30;;;23.20;30.50;;;;;;5073729;28;20388;-64
2022/03/25 05:21:28;;;;;;;3.70;1.33;;;23.20;30.20;;;;;;5073710;28;20395;-64
2022/03/25 05:23:54;;;;;;;4.40;1.63;;;23.20;30.00;;;;;;5073741;28;20396;-64
2022/03/25 05:26:20;;;;;;;2.85;1.50;;;23.20;30.00;;;;;;5073263;28;20396;-66
2022/03/25 05:28:46;;;;;;;2.93;1.17;;;23.20;30.00;;;;;;5074374;28;20380;-66
2022/03/25 05:31:12;;;;;;;2.33;1.48;;;23.20;29.90;;;;;;5090162;28;21033;-65
2022/03/25 05:33:38;;;;;;;2.80;1.50;;;23.20;29.80;;;;;;5093748;28;20385;-62
2022/03/25 05:36:04;;;;;;;2.58;1.30;;;23.20;29.80;;;;;;5093979;28;20386;-63
2022/03/25 05:38:30;;;;;;;2.53;1.40;;;23.20;29.80;;;;;;5093206;28;20382;-65
2022/03/25 05:40:56;;;;;;;2.35;1.38;;;23.20;29.70;;;;;;5093630;28;20393;-64
2022/03/25 05:43:22;;;;;;;2.95;1.50;;;23.20;29.60;;;;;;5093550;28;20378;-62
2022/03/25 05:45:48;;;;;;;3.33;1.60;;;23.20;29.60;;;;;;5093203;28;20382;-63
2022/03/25 05:48:13;;;;;;;1.95;1.38;;;23.20;29.60;;;;;;5082570;28;20487;-64
2022/03/25 05:50:39;;;;;;;2.13;1.30;;;23.20;30.00;;;;;;5082559;28;20825;-65
2022/03/25 05:53:05;;;;;;;2.00;1.30;;;23.20;29.50;;;;;;5083984;28;20437;-63
2022/03/25 05:55:32;;;;;;;2.05;1.40;;;23.20;29.50;;;;;;5079019;28;20466;-63
2022/03/25 05:57:58;;;;;;;2.80;1.58;;;23.20;29.40;;;;;;5073187;28;20391;-62
2022/03/25 06:00:24;;;;;;;2.00;1.42;;;23.20;29.40;;;;;;5072618;28;20445;-62
2022/03/25 06:02:49;;;;;;;2.00;1.57;;;23.20;29.30;;;;;;5072851;28;20434;-66
2022/03/25 06:05:16;;;;;;;3.13;1.40;;;23.20;29.40;;;;;;5072835;28;20418;-64
2022/03/25 06:07:43;;;;;;;4.75;1.67;;;23.10;29.40;;;;;;5072862;28;20380;-66
2022/03/25 06:10:11;;;;;;;4.25;1.55;;;23.10;29.30;;;;;;5073218;28;20383;-63
2022/03/25 06:12:39;;;;;;;3.45;1.90;;;23.10;29.40;;;;;;5070332;28;21017;-63
2022/03/25 06:15:05;;;;;;;2.60;1.77;;;23.10;29.40;;;;;;5072161;28;20388;-62
2022/03/25 06:17:31;;;;;;;2.83;1.40;;;23.10;29.40;;;;;;5071428;28;20891;-62
2022/03/25 06:19:57;;;;;;;3.00;1.40;;;23.00;29.50;;;;;;5072151;28;20384;-65
2022/03/25 06:22:27;;;;;;;2.70;1.50;;;23.00;29.80;;;;;;5070534;28;20492;-63
2022/03/25 06:24:53;;;;;;;2.85;1.42;;;23.10;30.00;;;;;;5069407;28;20871;-63
2022/03/25 06:27:20;;;;;;;5.75;1.60;;;23.10;30.00;;;;;;5071290;28;20483;-62
2022/03/25 06:29:46;;;;;;;7.65;1.70;;;23.10;29.80;;;;;;5070359;28;20391;-62
2022/03/25 06:32:12;;;;;;;5.57;1.70;;;23.10;30.40;;;;;;5069460;28;21068;-62
2022/03/25 06:34:38;;;;;;;6.45;1.75;;;23.10;30.60;;;;;;5070056;28;20388;-63
2022/03/25 06:37:04;;;;;;;2.65;1.40;;;23.10;30.70;;;;;;5070805;28;20411;-62
2022/03/25 06:39:30;;;;;;;4.72;1.55;;;23.20;30.90;;;;;;5070587;28;20865;-62
2022/03/25 06:41:56;;;;;;;4.28;1.67;;;23.20;31.00;;;;;;5071472;28;20406;-66
2022/03/25 06:44:22;;;;;;;4.97;1.40;;;23.20;31.00;;;;;;5071734;28;20388;-62
2022/03/25 06:46:48;;;;;;;3.40;1.40;;;23.20;30.90;;;;;;5071667;28;20419;-63
2022/03/25 06:49:14;;;;;;;4.95;1.52;;;23.20;31.10;;;;;;5072300;28;20398;-63
2022/03/25 06:51:40;;;;;;;4.78;1.85;;;23.20;30.70;;;;;;5071465;28;20427;-63
2022/03/25 06:54:06;;;;;;;4.18;1.50;;;23.20;31.30;;;;;;5071857;28;20388;-62
2022/03/25 06:56:35;;;;;;;4.68;1.58;;;23.20;30.90;;;;;;5071443;28;20517;-63
2022/03/25 06:59:02;;;;;;;3.45;1.73;;;23.30;31.00;;;;;;5071699;28;20422;-62
2022/03/25 07:01:27;;;;;;;3.58;1.50;;;23.30;31.00;;;;;;5071700;28;20388;-63
2022/03/25 07:03:53;;;;;;;4.72;1.80;;;23.30;30.80;;;;;;5071748;28;20745;-63
2022/03/25 07:06:24;;;;;;;3.88;1.63;;;23.30;31.00;;;;;;5071562;28;20388;-62
2022/03/25 07:08:55;;;;;;;6.15;1.50;;;23.30;30.80;;;;;;5071758;28;20422;-63
2022/03/25 07:11:21;;;;;;;3.38;1.60;;;23.30;30.60;;;;;;5071621;28;20491;-63
2022/03/25 07:13:47;;;;;;;2.63;1.45;;;23.30;30.30;;;;;;5088780;28;20386;-63
2022/03/25 07:16:13;;;;;;;4.05;1.52;;;23.30;30.50;;;;;;5091768;28;20896;-66
2022/03/25 07:18:39;;;;;;;4.93;1.63;;;23.40;30.10;;;;;;5077889;28;20391;-64
2022/03/25 07:21:05;;;;;;;4.50;1.60;;;23.30;29.80;;;;;;5071147;28;20470;-63
2022/03/25 07:23:31;;;;;;;4.18;1.50;;;23.30;30.00;;;;;;5071200;28;20466;-62
2022/03/25 07:25:56;;;;;;;4.05;1.40;;;23.30;29.70;;;;;;5071726;28;20925;-62
2022/03/25 07:28:22;;;;;;;3.13;1.43;;;23.40;29.80;;;;;;5070641;28;20379;-63
2022/03/25 07:30:48;;;;;;;4.15;1.58;;;23.40;29.80;;;;;;5068423;28;20411;-62
2022/03/25 07:33:14;;;;;;;2.73;1.30;;;23.40;29.70;;;;;;5066014;28;20417;-67
2022/03/25 07:35:40;;;;;;;4.13;1.35;;;23.40;29.70;;;;;;5071237;28;20392;-64
2022/03/25 07:38:06;;;;;;;2.90;1.40;;;23.40;29.60;;;;;;5071315;28;20522;-65
2022/03/25 07:40:32;;;;;;;3.05;1.35;;;23.40;29.60;;;;;;5071118;28;20391;-65
2022/03/25 07:42:58;;;;;;;2.87;1.47;;;23.40;29.50;;;;;;5074517;28;20432;-63
2022/03/25 07:45:24;;;;;;;2.92;1.67;;;23.40;29.40;;;;;;5075222;28;20397;-63
2022/03/25 07:47:50;;;;;;;2.20;1.10;;;23.40;29.40;;;;;;5075245;28;20422;-65
2022/03/25 07:50:21;;;;;;;2.17;1.33;;;23.50;29.40;;;;;;5075430;28;20887;-64
2022/03/25 07:52:48;;;;;;;2.45;1.50;;;23.40;29.30;;;;;;5075063;28;20872;-64
2022/03/25 07:55:17;;;;;;;1.88;1.30;;;23.50;29.30;;;;;;5075241;28;20756;-65
2022/03/25 07:57:43;;;;;;;2.88;1.25;;;23.50;29.20;;;;;;5074998;28;20387;-66
2022/03/25 08:00:13;;;;;;;3.00;1.50;;;23.50;29.30;;;;;;5075051;28;20387;-65
2022/03/25 08:02:44;;;;;;;1.77;1.40;;;23.50;29.30;;;;;;5074315;28;20426;-62
2022/03/25 08:05:11;;;;;;;1.88;1.40;;;23.50;29.30;;;;;;5065269;28;20947;-63
2022/03/25 08:07:45;;;;;;;1.75;1.20;;;23.50;29.20;;;;;;5055750;28;20435;-64
2022/03/25 08:10:11;;;;;;;2.25;1.20;;;23.50;29.20;;;;;;5036924;28;20446;-63
2022/03/25 08:12:37;;;;;;;2.00;1.30;;;23.60;29.20;;;;;;5054187;28;20409;-66
2022/03/25 08:15:07;;;;;;;2.20;1.30;;;23.60;29.20;;;;;;5054745;28;20382;-64
2022/03/25 08:17:45;;;;;;;1.60;1.20;;;23.60;29.20;;;;;;5054466;28;20394;-64
2022/03/25 08:20:11;;;;;;;2.33;1.23;;;23.60;29.10;;;;;;5054534;28;20442;-65
2022/03/25 08:22:37;;;;;;;1.58;1.10;;;23.70;29.20;;;;;;5054115;28;20393;-64
2022/03/25 08:27:50;;;;;;;2.60;1.20;;;23.70;29.10;;;;;;5055490;28;20393;-63
2022/03/25 08:30:15;;;;;;;2.75;1.40;;;23.70;29.00;;;;;;5054986;28;20405;-64
2022/03/25 08:32:42;;;;;;;2.38;1.40;;;23.70;28.90;;;;;;5055558;28;20415;-65
2022/03/25 08:35:08;;;;;;;3.30;1.30;;;23.70;29.20;;;;;;5054227;28;20932;-63
2022/03/25 08:37:34;;;;;;;2.85;1.15;;;23.70;29.10;;;;;;5054469;28;20408;-63
2022/03/25 08:40:00;;;;;;;3.83;1.55;;;23.70;29.20;;;;;;5054484;28;20381;-66
2022/03/25 08:42:26;;;;;;;3.27;1.20;;;23.70;29.10;;;;;;5054229;28;20389;-63
2022/03/25 08:44:51;;;;;;;2.35;1.30;;;23.80;29.00;;;;;;5054051;28;20479;-63
2022/03/25 08:47:17;;;;;;;3.17;1.30;;;23.80;29.00;;;;;;5064778;28;20429;-64
2022/03/25 08:49:43;;;;;;;2.03;1.10;;;23.80;29.10;;;;;;5074155;28;20479;-65
2022/03/25 08:52:09;;;;;;;2.25;1.23;;;23.80;29.00;;;;;;5073891;28;20503;-66
2022/03/25 08:54:35;;;;;;;3.50;1.30;;;23.80;29.00;;;;;;5073760;28;20442;-64
2022/03/25 08:57:02;;;;;;;2.00;1.15;;;23.80;29.00;;;;;;5073976;28;20940;-64
2022/03/25 08:59:28;;;;;;;1.70;1.10;;;23.80;28.90;;;;;;5073743;28;20394;-64
2022/03/25 09:01:56;;;;;;;1.80;1.20;;;23.90;28.90;;;;;;5073958;28;20532;-66
2022/03/25 09:04:21;;;;;;;2.40;1.33;;;23.90;28.90;;;;;;5056399;28;20390;-63
2022/03/25 09:06:47;;;;;;;2.30;1.30;;;23.90;28.90;;;;;;5073723;28;20379;-63
2022/03/25 09:09:12;;;;;;;1.97;1.10;;;23.90;28.90;;;;;;5072574;28;20484;-66
2022/03/25 09:11:40;;;;;;;2.78;1.33;;;23.90;28.90;;;;;;5073509;28;20408;-66
2022/03/25 09:14:05;;;;;;;1.95;1.00;;;24.00;28.90;;;;;;5073691;28;20412;-66
2022/03/25 09:16:31;;;;;;;2.50;1.27;;;24.00;28.80;;;;;;5073274;28;20427;-64
2022/03/25 09:18:57;;;;;;;2.00;1.30;;;24.00;28.80;;;;;;5073321;28;20848;-64
2022/03/25 09:21:23;;;;;;;2.60;1.10;;;23.90;28.80;;;;;;5073039;28;20395;-64
2022/03/25 09:23:49;;;;;;;2.28;1.50;;;24.00;28.80;;;;;;5072172;28;20899;-63
2022/03/25 09:26:16;;;;;;;2.37;1.30;;;23.90;28.80;;;;;;5073297;28;20952;-65
2022/03/25 09:28:41;;;;;;;2.30;1.30;;;24.00;28.80;;;;;;5073246;28;20380;-65
2022/03/25 09:31:07;;;;;;;2.47;1.30;;;23.90;28.80;;;;;;5073497;28;20407;-66
2022/03/25 09:33:33;;;;;;;2.83;1.55;;;24.00;28.70;;;;;;5073538;28;20465;-63
2022/03/25 09:35:59;;;;;;;2.13;1.40;;;24.00;28.70;;;;;;5073071;28;20383;-65
2022/03/25 09:38:25;;;;;;;2.20;1.17;;;23.90;28.70;;;;;;5072939;28;20799;-65
2022/03/25 09:40:52;;;;;;;1.80;1.40;;;24.00;28.80;;;;;;5073059;28;20376;-63
2022/03/25 09:43:19;;;;;;;2.78;1.40;;;23.90;28.70;;;;;;5073144;28;20391;-64
2022/03/25 09:45:45;;;;;;;2.53;1.20;;;23.90;28.70;;;;;;5073009;28;20387;-64
2022/03/25 09:48:11;;;;;;;1.95;1.33;;;23.90;28.70;;;;;;5072455;28;20403;-64
2022/03/25 09:50:39;;;;;;;1.90;1.30;;;23.90;28.70;;;;;;5072417;28;20495;-66
2022/03/25 09:53:07;;;;;;;2.05;1.30;;;23.90;28.80;;;;;;5072916;28;20460;-64
2022/03/25 09:55:37;;;;;;;2.88;1.40;;;23.90;28.70;;;;;;5072826;28;20782;-66
2022/03/25 09:58:03;;;;;;;1.83;1.30;;;23.90;28.70;;;;;;5072892;28;20753;-64
2022/03/25 10:00:30;;;;;;;2.10;1.60;;;23.90;28.60;;;;;;5072682;28;20397;-63
2022/03/25 10:02:55;;;;;;;1.85;1.30;;;24.00;28.60;;;;;;5072497;28;20380;-64
2022/03/25 10:05:22;;;;;;;2.20;1.40;;;24.00;28.60;;;;;;5071721;28;20399;-65
2022/03/25 10:07:55;;;;;;;2.25;1.30;;;24.00;28.50;;;;;;5071229;28;20752;-64
2022/03/25 10:10:25;;;;;;;2.00;1.55;;;24.00;28.50;;;;;;5072516;28;20408;-64
2022/03/25 10:13:02;;;;;;;2.00;1.30;;;24.00;28.50;;;;;;5072207;28;20392;-66
2022/03/25 10:15:33;;;;;;;1.90;1.60;;;24.00;28.50;;;;;;5072313;28;20382;-63
2022/03/25 10:18:06;;;;;;;2.17;1.50;;;24.00;28.50;;;;;;5072560;28;20490;-63
2022/03/25 10:20:33;;;;;;;2.47;1.55;;;24.00;28.50;;;;;;5072141;28;20380;-66
2022/03/25 10:23:04;;;;;;;2.45;1.50;;;24.00;29.00;;;;;;5070956;28;20404;-65
2022/03/25 10:25:44;;;;;;;2.55;1.60;;;24.00;28.50;;;;;;5072090;28;20384;-66
2022/03/25 10:28:29;;;;;;;2.47;1.80;;;24.00;28.60;;;;;;5072231;28;20394;-64
2022/03/25 10:31:00;;;;;;;1.80;1.30;;;24.00;28.50;;;;;;5071796;28;20498;-64
2022/03/25 10:33:32;;;;;;;2.05;1.55;;;24.00;28.50;;;;;;5072199;28;20384;-64
2022/03/25 10:36:09;;;;;;;2.72;1.70;;;24.00;28.50;;;;;;5072487;28;20479;-64
2022/03/25 10:38:48;;;;;;;2.78;1.40;;;24.00;28.50;;;;;;5071966;28;20386;-63
2022/03/25 10:41:18;;;;;;;2.97;1.50;;;25.20;29.20;;;;;;5072208;28;20474;-63
2022/03/25 10:43:47;;;;;;;2.50;1.45;;;25.90;28.80;;;;;;5072170;28;20399;-65
2022/03/25 10:46:27;;;;;;;1.98;1.38;;;26.20;28.80;;;;;;5072031;28;20386;-63
2022/03/25 10:48:53;;;;;;;4.60;1.52;;;26.50;28.70;;;;;;5071068;28;20943;-63
2022/03/25 10:51:19;;;;;;;2.67;1.40;;;26.70;28.50;;;;;;5070715;28;20415;-64
2022/03/25 10:53:56;;;;;;;1.93;1.23;;;26.90;28.50;;;;;;5070275;28;20423;-62
2022/03/25 10:56:22;;;;;;;3.25;1.35;;;27.10;28.30;;;;;;5069039;28;20398;-63
2022/03/25 10:58:55;;;;;;;2.50;1.38;;;27.20;28.10;;;;;;5071017;28;20910;-65
2022/03/25 11:01:21;;;;;;;2.13;1.13;;;27.30;28.10;;;;;;5068981;28;20405;-67
2022/03/25 11:03:52;;;;;;;2.58;1.33;;;27.50;28.00;;;;;;5070671;28;20384;-65
2022/03/25 11:06:18;;;;;;;2.30;1.30;;;27.60;27.90;;;;;;5068621;28;20388;-64
2022/03/25 11:08:45;;;;;;;2.13;1.27;;;27.70;27.90;;;;;;5070184;28;20384;-63
2022/03/25 11:11:14;;;;;;;2.45;1.30;;;27.80;27.80;;;;;;5070383;28;20411;-63
2022/03/25 11:13:40;;;;;;;1.95;1.45;;;27.90;27.70;;;;;;5070369;28;20923;-63
2022/03/25 11:16:10;;;;;;;1.92;1.13;;;28.00;27.70;;;;;;5070402;28;20411;-63
2022/03/25 11:18:39;;;;;;;4.20;1.25;;;28.10;27.60;;;;;;5067315;28;20812;-63
2022/03/25 11:21:05;;;;;;;2.58;1.30;;;28.10;27.50;;;;;;5070483;28;20856;-64
2022/03/25 11:23:39;;;;;;;2.50;1.40;;;28.20;27.60;;;;;;5070620;28;20878;-65
2022/03/25 11:26:08;;;;;;;1.80;1.20;;;28.30;27.50;;;;;;5071196;28;20391;-64
2022/03/25 11:28:34;;;;;;;1.75;1.17;;;28.40;27.40;;;;;;5067449;28;20478;-65
2022/03/25 11:31:05;;;;;;;1.45;1.00;;;28.50;27.30;;;;;;5069955;28;20399;-65
2022/03/25 11:33:32;;;;;;;1.92;1.23;;;28.50;27.20;;;;;;5070125;28;20391;-64
2022/03/25 11:36:15;;;;;;;1.73;1.00;;;28.60;27.20;;;;;;5068955;28;20380;-63
2022/03/25 11:38:42;;;;;;;1.70;1.23;;;28.70;27.20;;;;;;5067994;28;20505;-64
2022/03/25 11:41:34;;;;;;;2.25;1.30;;;28.80;27.30;;;;;;5070168;28;20749;-63
2022/03/25 11:44:17;;;;;;;2.00;1.30;;;28.80;27.00;;;;;;5068986;28;20907;-65
2022/03/25 11:47:01;;;;;;;2.10;1.15;;;28.90;26.90;;;;;;5068310;28;20784;-64
2022/03/25 11:49:29;;;;;;;1.95;1.40;;;29.00;26.90;;;;;;5067972;28;20450;-63
2022/03/25 11:51:55;;;;;;;2.13;1.15;;;29.00;26.90;;;;;;5069327;28;20411;-64
2022/03/25 11:54:41;;;;;;;1.87;1.23;;;29.10;26.90;;;;;;5069997;28;20406;-64
2022/03/25 11:57:26;;;;;;;1.70;1.23;;;29.20;26.80;;;;;;5069113;28;20487;-63
2022/03/25 11:59:54;;;;;;;2.20;1.20;;;29.20;26.80;;;;;;5070116;28;20383;-64
2022/03/25 12:02:29;;;;;;;2.17;1.30;;;29.30;26.70;;;;;;5069950;28;21055;-64
2022/03/25 12:04:56;;;;;;;1.98;1.15;;;29.40;26.60;;;;;;5066844;28;20384;-64
2022/03/25 12:07:22;;;;;;;2.38;1.20;;;29.40;26.70;;;;;;5071138;28;20383;-64
2022/03/25 12:09:48;;;;;;;2.45;1.23;;;29.30;26.70;;;;;;5071055;28;20386;-65
2022/03/25 12:12:13;;;;;;;2.20;1.50;;;28.90;26.70;;;;;;5070918;28;20462;-64
2022/03/25 12:15:10;;;;;;;2.20;1.35;;;28.50;26.50;;;;;;5070831;28;20390;-67
2022/03/25 12:17:36;;;;;;;1.67;1.20;;;28.20;26.70;;;;;;5070900;28;20392;-64
2022/03/25 12:20:03;;;;;;;1.95;1.40;;;27.90;26.80;;;;;;5070977;28;20390;-64
2022/03/25 12:22:33;;;;;;;3.78;1.65;;;27.70;27.10;;;;;;5070741;28;20384;-65
2022/03/25 12:25:13;;;;;;;3.85;1.70;;;27.50;27.00;;;;;;5070757;28;20479;-66
2022/03/25 12:27:39;;;;;;;4.07;1.70;;;27.20;26.70;;;;;;5071018;28;20935;-66
2022/03/25 12:30:06;;;;;;;7.38;1.95;;;26.90;26.80;;;;;;5074281;28;20392;-65
2022/03/25 12:32:34;;;;;;;6.18;1.70;;;26.80;26.90;;;;;;5074531;28;20399;-64
2022/03/25 12:35:17;;;;;;;4.88;1.80;;;26.70;27.60;;;;;;5074336;28;20852;-65
2022/03/25 12:37:48;;;;;;;3.78;1.70;;;26.60;27.70;;;;;;5074749;28;20388;-66
2022/03/25 12:40:26;;;;;;;6.35;1.90;;;26.60;27.90;;;;;;5074271;28;20388;-67
2022/03/25 12:43:01;;;;;;;5.38;1.65;;;26.60;28.20;;;;;;5074540;28;20471;-67
2022/03/25 12:45:37;;;;;;;4.80;1.90;;;26.60;28.20;;;;;;5074462;28;20407;-65
2022/03/25 12:48:14;;;;;;;4.70;1.80;;;26.60;28.40;;;;;;5074646;28;20461;-68
2022/03/25 12:50:48;;;;;;;3.78;2.00;;;26.60;28.70;;;;;;5073873;28;20411;-67
2022/03/25 12:53:15;;;;;;;5.10;1.88;;;26.50;28.90;;;;;;5074228;28;20384;-66